Time;durP1;ratioP1;P1;durP2;ratioP2;P2;SDS_P1;SDS_P2;PMS_P1;PMS_P2;Temp;Humidity;BMP_temperature;BMP_pressure;BME280_temperature;BME280_humidity;BME280_pressure;Samples;Min_cycle;Max_cycle;Signal;HPM_P1;HPM_P2
2024/02/22 00:02:01;;;;;;;;;;;8.70;1.00;;;;;;5040126;28;20059;-83
2024/02/22 00:04:28;;;;;;;;;;;8.70;1.00;;;;;;5048252;28;20018;-83
2024/02/22 00:06:55;;;;;;;;;;;8.70;1.00;;;;;;5054258;28;19965;-84
2024/02/22 00:09:22;;;;;;;;;;;8.70;1.00;;;;;;5057483;28;19921;-84
2024/02/22 00:11:50;;;;;;;;;;;8.80;1.00;;;;;;5056211;28;19921;-82
2024/02/22 00:14:18;;;;;;;;;;;8.70;1.00;;;;;;5057008;28;19949;-81
2024/02/22 00:16:44;;;;;;;;;;;8.70;1.00;;;;;;5051783;28;19943;-83
2024/02/22 00:19:11;;;;;;;;;;;8.70;1.00;;;;;;5053202;28;19920;-86
2024/02/22 00:21:37;;;;;;;;;;;8.80;1.00;;;;;;5055425;28;19973;-83
2024/02/22 00:24:04;;;;;;;;;;;8.80;1.00;;;;;;5054642;28;19967;-82
2024/02/22 00:26:31;;;;;;;;;;;8.80;1.00;;;;;;5047355;28;19962;-84
2024/02/22 00:29:00;;;;;;;;;;;8.80;1.00;;;;;;5050412;28;19959;-82
2024/02/22 00:31:26;;;;;;;;;;;8.80;1.00;;;;;;5059119;28;19932;-82
2024/02/22 00:33:53;;;;;;;;;;;8.80;1.00;;;;;;5056670;28;19960;-84
2024/02/22 00:36:20;;;;;;;;;;;8.80;1.00;;;;;;5051106;28;19921;-84
2024/02/22 00:38:47;;;;;;;;;;;8.80;1.00;;;;;;5050859;28;19940;-84
2024/02/22 00:41:14;;;;;;;;;;;8.80;1.00;;;;;;5049702;28;19928;-83
2024/02/22 00:43:40;;;;;;;;;;;8.80;1.00;;;;;;5054109;28;19921;-83
2024/02/22 00:46:08;;;;;;;;;;;8.90;1.00;;;;;;5055370;28;19960;-84
2024/02/22 00:48:35;;;;;;;;;;;8.90;1.00;;;;;;5053267;28;20021;-84
2024/02/22 00:51:02;;;;;;;;;;;8.90;1.00;;;;;;5051339;28;20369;-84
2024/02/22 00:53:29;;;;;;;;;;;8.90;1.00;;;;;;5042022;28;19965;-82
2024/02/22 00:55:55;;;;;;;;;;;8.90;1.00;;;;;;5039684;28;19959;-83
2024/02/22 00:58:22;;;;;;;;;;;8.90;1.00;;;;;;5041890;28;20012;-82
2024/02/22 01:00:49;;;;;;;;;;;8.90;1.00;;;;;;5046551;28;19960;-83
2024/02/22 01:03:17;;;;;;;;;;;8.90;1.00;;;;;;5050629;28;20325;-84
2024/02/22 01:05:43;;;;;;;;;;;9.00;1.00;;;;;;5044652;28;20015;-84
2024/02/22 01:08:10;;;;;;;;;;;8.90;1.00;;;;;;5043592;28;19997;-84
2024/02/22 01:10:37;;;;;;;;;;;8.90;1.00;;;;;;5044288;28;20054;-83
2024/02/22 01:13:04;;;;;;;;;;;9.00;1.00;;;;;;5043760;28;19957;-82
2024/02/22 01:15:30;;;;;;;;;;;9.00;1.00;;;;;;5046994;28;20019;-84
2024/02/22 01:17:57;;;;;;;;;;;9.00;1.00;;;;;;5045518;28;19952;-82
2024/02/22 01:20:25;;;;;;;;;;;9.00;1.00;;;;;;5044852;28;20046;-84
2024/02/22 01:22:52;;;;;;;;;;;9.00;1.00;;;;;;5043455;28;20396;-84
2024/02/22 01:25:18;;;;;;;;;;;9.10;1.00;;;;;;5041863;28;19993;-84
2024/02/22 01:27:45;;;;;;;;;;;9.10;1.00;;;;;;5042025;28;19960;-84
2024/02/22 01:30:12;;;;;;;;;;;9.10;1.00;;;;;;5042054;28;20327;-84
2024/02/22 01:32:39;;;;;;;;;;;9.10;1.00;;;;;;5042570;28;19921;-84
2024/02/22 01:35:06;;;;;;;;;;;9.10;1.00;;;;;;5051638;28;19921;-82
2024/02/22 01:37:34;;;;;;;;;;;9.10;1.00;;;;;;5058837;28;19956;-82
2024/02/22 01:40:00;;;;;;;;;;;9.00;1.00;;;;;;5046450;28;19963;-83
2024/02/22 01:42:27;;;;;;;;;;;9.10;1.00;;;;;;5053892;28;19952;-81
2024/02/22 01:44:54;;;;;;;;;;;9.10;1.00;;;;;;5057581;28;19945;-82
2024/02/22 01:47:20;;;;;;;;;;;9.10;1.00;;;;;;5046274;28;20361;-83
2024/02/22 01:49:48;;;;;;;;;;;9.10;1.00;;;;;;5041217;28;20040;-83
2024/02/22 01:52:15;;;;;;;;;;;9.10;1.00;;;;;;5041148;28;20150;-82
2024/02/22 01:54:42;;;;;;;;;;;9.10;1.00;;;;;;5037605;28;19921;-82
2024/02/22 01:57:08;;;;;;;;;;;9.20;1.00;;;;;;5039294;28;19959;-82
2024/02/22 01:59:35;;;;;;;;;;;9.20;1.00;;;;;;5045673;28;20003;-82
2024/02/22 02:02:04;;;;;;;;;;;9.20;1.00;;;;;;5041064;28;20043;-83
2024/02/22 02:04:31;;;;;;;;;;;9.20;1.00;;;;;;5039202;28;19991;-81
2024/02/22 02:06:59;;;;;;;;;;;9.20;1.00;;;;;;5040248;28;19956;-84
2024/02/22 02:09:25;;;;;;;;;;;9.20;1.00;;;;;;5040615;28;19921;-82
2024/02/22 02:11:53;;;;;;;;;;;9.20;1.00;;;;;;5040332;28;20008;-83
2024/02/22 02:14:20;;;;;;;;;;;9.20;1.00;;;;;;5040130;28;19960;-83
2024/02/22 02:16:48;;;;;;;;;;;9.30;1.00;;;;;;5040944;28;19979;-79
2024/02/22 02:19:17;;;;;;;;;;;9.20;1.00;;;;;;5057834;28;19905;-84
2024/02/22 02:21:46;;;;;;;;;;;9.20;1.00;;;;;;5058674;28;20001;-84
2024/02/22 02:24:16;;;;;;;;;;;9.10;1.00;;;;;;5058728;28;19916;-83
2024/02/22 02:26:45;;;;;;;;;;;9.20;1.00;;;;;;5042592;28;19970;-85
2024/02/22 02:29:12;;;;;;;;;;;9.20;1.00;;;;;;5040137;28;19963;-83
2024/02/22 02:31:39;;;;;;;;;;;9.30;1.00;;;;;;5045190;28;20004;-80
2024/02/22 02:34:06;;;;;;;;;;;9.20;1.00;;;;;;5057058;28;19921;-84
2024/02/22 02:36:32;;;;;;;;;;;9.20;1.00;;;;;;5057511;28;19970;-83
2024/02/22 02:38:59;;;;;;;;;;;9.30;1.00;;;;;;5054658;28;19956;-82
2024/02/22 02:41:27;;;;;;;;;;;9.20;1.00;;;;;;5053628;28;19973;-84
2024/02/22 02:43:55;;;;;;;;;;;9.20;1.00;;;;;;5041461;28;20420;-84
2024/02/22 02:46:21;;;;;;;;;;;9.20;1.00;;;;;;5041902;28;19971;-86
2024/02/22 02:48:48;;;;;;;;;;;9.20;1.00;;;;;;5046677;28;20039;-82
2024/02/22 02:51:15;;;;;;;;;;;9.30;1.00;;;;;;5046218;28;19928;-82
2024/02/22 02:53:43;;;;;;;;;;;9.30;1.00;;;;;;5054685;28;19963;-82
2024/02/22 02:56:10;;;;;;;;;;;9.30;1.00;;;;;;5047352;28;19977;-85
2024/02/22 02:58:37;;;;;;;;;;;9.20;1.00;;;;;;5040803;28;20298;-81
2024/02/22 03:01:07;;;;;;;;;;;9.20;1.00;;;;;;5040150;28;19979;-83
2024/02/22 03:03:35;;;;;;;;;;;9.20;1.00;;;;;;5041191;28;19960;-82
2024/02/22 03:06:02;;;;;;;;;;;9.20;1.00;;;;;;5040397;28;19960;-82
2024/02/22 03:08:29;;;;;;;;;;;9.20;1.00;;;;;;5040974;28;19950;-83
2024/02/22 03:10:56;;;;;;;;;;;9.30;1.00;;;;;;5042309;28;19920;-84
2024/02/22 03:13:24;;;;;;;;;;;9.40;1.00;;;;;;5041669;28;19951;-83
2024/02/22 03:15:51;;;;;;;;;;;9.50;1.00;;;;;;5044270;28;19964;-82
2024/02/22 03:18:19;;;;;;;;;;;9.60;1.00;;;;;;5051061;28;19963;-83
2024/02/22 03:20:46;;;;;;;;;;;9.60;1.00;;;;;;5040132;28;19979;-83
2024/02/22 03:23:13;;;;;;;;;;;9.70;1.00;;;;;;5038803;28;20002;-83
2024/02/22 03:25:41;;;;;;;;;;;9.70;1.00;;;;;;5046669;28;19921;-83
2024/02/22 03:28:12;;;;;;;;;;;9.80;1.00;;;;;;5058770;28;19944;-81
2024/02/22 03:30:39;;;;;;;;;;;9.90;1.00;;;;;;5058852;28;19960;-81
2024/02/22 03:33:08;;;;;;;;;;;9.90;1.00;;;;;;5058606;28;19920;-81
2024/02/22 03:35:38;;;;;;;;;;;9.90;1.00;;;;;;5057545;28;19927;-81
2024/02/22 03:38:05;;;;;;;;;;;9.90;1.00;;;;;;5057470;28;19981;-81
2024/02/22 03:40:31;;;;;;;;;;;9.90;1.00;;;;;;5056350;28;19921;-82
2024/02/22 03:42:59;;;;;;;;;;;9.80;1.00;;;;;;5050543;28;19936;-82
2024/02/22 03:45:25;;;;;;;;;;;9.80;1.00;;;;;;5054140;28;20380;-83
2024/02/22 03:47:52;;;;;;;;;;;9.80;1.00;;;;;;5053493;28;19921;-82
2024/02/22 03:50:19;;;;;;;;;;;9.80;1.00;;;;;;5045989;28;19965;-80
2024/02/22 03:52:48;;;;;;;;;;;9.80;1.00;;;;;;5056697;28;19921;-80
2024/02/22 03:55:17;;;;;;;;;;;9.80;1.00;;;;;;5045640;28;19928;-83
2024/02/22 03:57:44;;;;;;;;;;;9.70;1.00;;;;;;5055113;23;20459;-86
2024/02/22 04:00:11;;;;;;;;;;;9.70;1.00;;;;;;5031266;28;19929;-86
2024/02/22 04:02:38;;;;;;;;;;;9.70;1.00;;;;;;5035095;28;19943;-86
2024/02/22 04:05:05;;;;;;;;;;;9.60;1.00;;;;;;5032870;28;19945;-86
2024/02/22 04:07:32;;;;;;;;;;;9.60;7.90;;;;;;5031386;28;19960;-87
2024/02/22 04:10:00;;;;;;;;;;;9.60;16.70;;;;;;5038408;28;19966;-86
2024/02/22 04:12:28;;;;;;;;;;;9.60;43.30;;;;;;5038705;28;19909;-86
2024/02/22 04:14:55;;;;;;;;;;;9.60;1.00;;;;;;5037330;28;19955;-86
2024/02/22 04:17:21;;;;;;;;;;;9.60;1.00;;;;;;5036937;28;19917;-81
2024/02/22 04:19:48;;;;;;;;;;;9.60;1.00;;;;;;5025663;28;20074;-82
2024/02/22 04:22:15;;;;;;;;;;;9.70;1.00;;;;;;5036625;28;19921;-85
2024/02/22 04:24:42;;;;;;;;;;;9.70;1.00;;;;;;5037780;28;19911;-85
2024/02/22 04:27:10;;;;;;;;;;;9.60;1.00;;;;;;5037824;28;19946;-85
2024/02/22 04:29:37;;;;;;;;;;;9.60;1.00;;;;;;5038049;28;19906;-85
2024/02/22 04:32:03;;;;;;;;;;;9.60;1.00;;;;;;5037864;28;19916;-84
2024/02/22 04:34:30;;;;;;;;;;;9.60;1.00;;;;;;5034076;28;19967;-85
2024/02/22 04:36:57;;;;;;;;;;;9.60;1.00;;;;;;5034221;28;19961;-85
2024/02/22 04:39:23;;;;;;;;;;;9.60;1.00;;;;;;5029201;28;20338;-85
2024/02/22 04:41:50;;;;;;;;;;;9.60;1.00;;;;;;5027170;28;19921;-86
2024/02/22 04:44:18;;;;;;;;;;;9.60;1.00;;;;;;5023456;28;20028;-85
2024/02/22 04:46:45;;;;;;;;;;;9.60;1.00;;;;;;5022324;28;19953;-86
2024/02/22 04:49:11;;;;;;;;;;;9.60;1.00;;;;;;5020711;28;20449;-85
2024/02/22 04:51:38;;;;;;;;;;;9.60;1.00;;;;;;5020625;28;19968;-86
2024/02/22 04:54:05;;;;;;;;;;;9.60;8.10;;;;;;5027221;28;19956;-85
2024/02/22 04:56:31;;;;;;;;;;;9.60;21.00;;;;;;5040730;28;19983;-85
2024/02/22 04:58:58;;;;;;;;;;;9.50;20.00;;;;;;5032623;28;19991;-86
2024/02/22 05:01:27;;;;;;;;;;;9.50;67.90;;;;;;5026658;28;19959;-86
2024/02/22 05:03:53;;;;;;;;;;;9.50;53.30;;;;;;5026227;28;19921;-86
2024/02/22 05:06:20;;;;;;;;;;;9.50;91.40;;;;;;5024243;28;19940;-87
2024/02/22 05:08:47;;;;;;;;;;;9.50;99.90;;;;;;5029087;28;19910;-84
2024/02/22 05:11:13;;;;;;;;;;;9.50;99.90;;;;;;5035306;28;19968;-86
2024/02/22 05:13:41;;;;;;;;;;;9.50;99.90;;;;;;5027230;28;19957;-86
2024/02/22 05:16:08;;;;;;;;;;;9.50;99.90;;;;;;5026869;28;19921;-85
2024/02/22 05:18:37;;;;;;;;;;;9.50;99.90;;;;;;5028558;28;19960;-86
2024/02/22 05:21:04;;;;;;;;;;;9.40;99.90;;;;;;5027598;28;19921;-87
2024/02/22 05:23:31;;;;;;;;;;;9.40;99.90;;;;;;5024981;28;20292;-86
2024/02/22 05:25:58;;;;;;;;;;;9.40;99.90;;;;;;5025902;28;19968;-85
2024/02/22 05:28:27;;;;;;;;;;;9.30;1.00;;;;;;5025427;28;19963;-85
2024/02/22 05:30:53;;;;;;;;;;;9.30;1.00;;;;;;5030842;28;19922;-85
2024/02/22 05:33:20;;;;;;;;;;;9.20;1.00;;;;;;5025267;28;19972;-85
2024/02/22 05:35:48;;;;;;;;;;;9.20;21.50;;;;;;5027308;28;19963;-86
2024/02/22 05:38:15;;;;;;;;;;;9.10;99.90;;;;;;5022872;28;20016;-86
2024/02/22 05:40:42;;;;;;;;;;;9.10;99.90;;;;;;5024816;28;19959;-86
2024/02/22 05:43:08;;;;;;;;;;;9.00;99.90;;;;;;5022278;28;20086;-84
2024/02/22 05:45:37;;;;;;;;;;;9.00;1.00;;;;;;5022516;28;19960;-85
2024/02/22 05:48:04;;;;;;;;;;;8.90;1.00;;;;;;5021642;28;20402;-85
2024/02/22 05:50:31;;;;;;;;;;;9.00;1.00;;;;;;5028851;28;19921;-85
2024/02/22 05:52:59;;;;;;;;;;;9.00;99.90;;;;;;5036847;28;19910;-85
2024/02/22 05:55:26;;;;;;;;;;;8.90;29.90;;;;;;5037031;28;19941;-85
2024/02/22 05:57:52;;;;;;;;;;;8.90;99.90;;;;;;5039545;28;19962;-85
2024/02/22 06:00:19;;;;;;;;;;;8.90;1.00;;;;;;5038999;28;19999;-85
2024/02/22 06:02:46;;;;;;;;;;;8.80;99.90;;;;;;5026751;28;19961;-86
2024/02/22 06:05:14;;;;;;;;;;;8.80;1.00;;;;;;5022092;28;19928;-87
2024/02/22 06:07:41;;;;;;;;;;;8.80;1.00;;;;;;5029103;28;19940;-86
2024/02/22 06:10:10;;;;;;;;;;;8.70;1.00;;;;;;5021779;28;20004;-86
2024/02/22 06:12:36;;;;;;;;;;;8.70;99.90;;;;;;5033097;28;19906;-87
2024/02/22 06:15:05;;;;;;;;;;;8.70;1.00;;;;;;5032715;28;20007;-86
2024/02/22 06:17:32;;;;;;;;;;;8.70;1.00;;;;;;5033271;28;19947;-86
2024/02/22 06:19:59;;;;;;;;;;;8.70;1.00;;;;;;5031315;28;19928;-86
2024/02/22 06:22:28;;;;;;;;;;;8.70;1.00;;;;;;5027558;28;19963;-85
2024/02/22 06:24:55;;;;;;;;;;;8.70;99.90;;;;;;5027594;28;19967;-85
2024/02/22 06:27:23;;;;;;;;;;;8.70;99.90;;;;;;5026903;28;19983;-88
2024/02/22 06:29:49;;;;;;;;;;;8.70;1.00;;;;;;5026244;28;20428;-88
2024/02/22 06:32:16;;;;;;;;;;;8.70;1.00;;;;;;5024374;28;19955;-88
2024/02/22 06:34:43;;;;;;;;;;;8.70;99.90;;;;;;5023777;28;19922;-89
2024/02/22 06:37:12;;;;;;;;;;;8.80;1.00;;;;;;5025163;28;19985;-89
2024/02/22 06:39:39;;;;;;;;;;;8.80;99.90;;;;;;5021967;28;19982;-89
2024/02/22 06:42:06;;;;;;;;;;;8.80;97.90;;;;;;5020088;28;19921;-88
2024/02/22 06:44:35;;;;;;;;;;;8.70;31.90;;;;;;5028482;28;19947;-88
2024/02/22 06:47:01;;;;;;;;;;;8.60;67.80;;;;;;5034055;28;19977;-88
2024/02/22 06:49:31;;;;;;;;;;;8.70;99.90;;;;;;5039913;28;19932;-87
2024/02/22 06:51:58;;;;;;;;;;;8.80;99.90;;;;;;5040054;28;19905;-87
2024/02/22 06:54:24;;;;;;;;;;;8.80;99.90;;;;;;5039952;28;19905;-87
2024/02/22 06:56:51;;;;;;;;;;;8.70;99.90;;;;;;5039833;28;19909;-86
2024/02/22 06:59:18;;;;;;;;;;;8.70;1.00;;;;;;5038472;28;19905;-86
2024/02/22 07:01:46;;;;;;;;;;;8.80;1.00;;;;;;5039183;28;19947;-87
2024/02/22 07:04:13;;;;;;;;;;;8.70;1.00;;;;;;5038300;28;20394;-86
2024/02/22 07:06:40;;;;;;;;;;;8.70;1.00;;;;;;5028400;28;19963;-87
2024/02/22 07:09:07;;;;;;;;;;;8.70;1.00;;;;;;5030243;28;19922;-87
2024/02/22 07:11:34;;;;;;;;;;;8.60;99.90;;;;;;5021052;28;19921;-87
2024/02/22 07:14:00;;;;;;;;;;;8.60;99.90;;;;;;5020097;28;19988;-87
2024/02/22 07:16:27;;;;;;;;;;;8.50;99.90;;;;;;5020133;28;19928;-86
2024/02/22 07:18:56;;;;;;;;;;;8.50;99.90;;;;;;5026728;28;19912;-86
2024/02/22 07:21:22;;;;;;;;;;;8.50;99.90;;;;;;5036842;28;19921;-86
2024/02/22 07:23:54;;;;;;;;;;;8.60;1.00;;;;;;5038594;28;19910;-88
2024/02/22 07:26:21;;;;;;;;;;;8.60;1.00;;;;;;5038812;28;19909;-86
2024/02/22 07:28:48;;;;;;;;;;;8.50;1.00;;;;;;5036604;28;19961;-87
2024/02/22 07:31:14;;;;;;;;;;;8.50;1.00;;;;;;5030890;28;19936;-88
2024/02/22 07:33:44;;;;;;;;;;;8.50;1.00;;;;;;5031304;28;19921;-90
2024/02/22 07:36:12;;;;;;;;;;;8.60;1.00;;;;;;5026425;28;20494;-86
2024/02/22 07:38:41;;;;;;;;;;;8.60;1.00;;;;;;5020276;28;19922;-86
2024/02/22 07:41:15;;;;;;;;;;;8.60;1.00;;;;;;5021336;28;19988;-87
2024/02/22 07:43:42;;;;;;;;;;;8.60;1.00;;;;;;5027602;28;19989;-87
2024/02/22 07:46:11;;;;;;;;;;;8.60;1.00;;;;;;5031149;28;19928;-86
2024/02/22 07:48:38;;;;;;;;;;;8.50;1.00;;;;;;5024935;28;19967;-86
2024/02/22 07:51:04;;;;;;;;;;;8.60;1.00;;;;;;5029403;28;19936;-86
2024/02/22 07:53:34;;;;;;;;;;;8.60;1.00;;;;;;5037591;28;19906;-86
2024/02/22 07:56:02;;;;;;;;;;;8.60;1.00;;;;;;5024371;28;20404;-87
2024/02/22 07:58:29;;;;;;;;;;;8.60;1.00;;;;;;5022026;28;19928;-87
2024/02/22 08:00:58;;;;;;;;;;;8.60;1.00;;;;;;5019947;28;20001;-87
2024/02/22 08:03:25;;;;;;;;;;;8.50;1.00;;;;;;5024343;28;20299;-87
2024/02/22 08:05:52;;;;;;;;;;;8.60;1.00;;;;;;5027003;28;19952;-88
2024/02/22 08:08:31;;;;;;;;;;;8.50;1.00;;;;;;5021784;28;20009;-88
2024/02/22 08:10:59;;;;;;;;;;;8.40;1.00;;;;;;5022104;28;19937;-89
2024/02/22 08:13:26;;;;;;;;;;;8.50;1.00;;;;;;5022996;28;19941;-87
2024/02/22 08:15:52;;;;;;;;;;;8.40;1.00;;;;;;5021835;28;19935;-88
2024/02/22 08:18:19;;;;;;;;;;;8.50;1.00;;;;;;5024435;28;19928;-88
2024/02/22 08:20:46;;;;;;;;;;;8.50;1.00;;;;;;5020606;28;19963;-87
2024/02/22 08:23:14;;;;;;;;;;;8.40;1.00;;;;;;5021198;28;19921;-88
2024/02/22 08:25:43;;;;;;;;;;;8.40;1.00;;;;;;5021512;28;20025;-88
2024/02/22 08:28:11;;;;;;;;;;;8.40;1.00;;;;;;5022912;28;19982;-88
2024/02/22 08:30:38;;;;;;;;;;;8.40;1.00;;;;;;5023522;28;19963;-89
2024/02/22 08:33:11;;;;;;;;;;;8.50;1.00;;;;;;5024946;28;19959;-88
2024/02/22 08:35:49;;;;;;;;;;;8.50;1.00;;;;;;5023103;28;19921;-89
2024/02/22 08:38:18;;;;;;;;;;;8.40;1.00;;;;;;5023143;28;20392;-90
2024/02/22 08:40:45;;;;;;;;;;;8.40;1.00;;;;;;5024485;28;20005;-89
2024/02/22 08:43:14;;;;;;;;;;;8.40;1.00;;;;;;5026360;28;20023;-87
2024/02/22 08:45:41;;;;;;;;;;;8.40;1.00;;;;;;5025202;28;19925;-88
2024/02/22 08:48:08;;;;;;;;;;;8.40;1.00;;;;;;5036190;28;19940;-87
2024/02/22 08:50:35;;;;;;;;;;;8.40;5.40;;;;;;5029968;28;20005;-88
2024/02/22 08:53:04;;;;;;;;;;;8.50;25.20;;;;;;5025499;28;19925;-89
2024/02/22 08:55:31;;;;;;;;;;;8.50;30.40;;;;;;5025235;28;20034;-88
2024/02/22 08:57:57;;;;;;;;;;;8.50;26.90;;;;;;5024585;28;19984;-87
2024/02/22 09:00:25;;;;;;;;;;;8.50;39.30;;;;;;5024746;28;19929;-88
2024/02/22 09:02:52;;;;;;;;;;;8.60;55.70;;;;;;5025436;28;19988;-87
2024/02/22 09:05:20;;;;;;;;;;;8.50;52.90;;;;;;5026741;28;19921;-88
2024/02/22 09:07:47;;;;;;;;;;;8.50;60.30;;;;;;5024439;28;19948;-87
2024/02/22 09:10:15;;;;;;;;;;;8.40;78.20;;;;;;5024463;28;19940;-87
2024/02/22 09:12:43;;;;;;;;;;;8.40;95.80;;;;;;5026811;28;19944;-87
2024/02/22 09:15:10;;;;;;;;;;;8.40;99.90;;;;;;5025996;28;19946;-88
2024/02/22 09:17:39;;;;;;;;;;;8.40;99.90;;;;;;5027191;28;19975;-86
2024/02/22 09:20:06;;;;;;;;;;;8.40;99.90;;;;;;5030410;28;19921;-87
2024/02/22 09:22:33;;;;;;;;;;;8.40;99.90;;;;;;5041071;28;19918;-86
2024/02/22 09:25:00;;;;;;;;;;;8.50;99.90;;;;;;5039849;28;19958;-88
2024/02/22 09:27:28;;;;;;;;;;;8.50;99.90;;;;;;5026653;28;19939;-87
2024/02/22 09:29:58;;;;;;;;;;;8.60;99.90;;;;;;5028901;28;19991;-89
2024/02/22 09:32:24;;;;;;;;;;;8.50;99.90;;;;;;5041306;28;19925;-87
2024/02/22 09:34:54;;;;;;;;;;;8.50;99.90;;;;;;5041112;28;19971;-87
2024/02/22 09:37:20;;;;;;;;;;;8.50;99.90;;;;;;5037249;28;20313;-88
2024/02/22 09:39:49;;;;;;;;;;;8.50;99.90;;;;;;5022714;28;19921;-87
2024/02/22 09:42:30;;;;;;;;;;;8.60;99.90;;;;;;5027610;28;20336;-88
2024/02/22 09:44:57;;;;;;;;;;;8.60;99.90;;;;;;5038626;28;19944;-89
2024/02/22 09:47:47;;;;;;;;;;;8.70;99.90;;;;;;5032653;28;19921;-89
2024/02/22 09:50:38;;;;;;;;;;;8.70;99.90;;;;;;4956698;29;19934;-89
2024/02/22 09:53:29;;;;;;;;;;;8.60;99.90;;;;;;4939103;29;19970;-90
2024/02/22 09:56:24;;;;;;;;;;;;;;;;;;;;;
2024/02/22 09:58:51;;;;;;;;;;;8.60;99.90;;;;;;5212056;23;20017;-86
2024/02/22 10:01:18;;;;;;;;;;;8.70;99.90;;;;;;5034677;28;20035;-86
2024/02/22 10:03:44;;;;;;;;;;;8.70;99.90;;;;;;5033258;28;19953;-87
2024/02/22 10:06:17;;;;;;;;;;;8.80;99.90;;;;;;5027670;28;19921;-86
2024/02/22 10:08:47;;;;;;;;;;;8.80;99.90;;;;;;5028669;28;20050;-86
2024/02/22 10:11:14;;;;;;;;;;;8.80;99.90;;;;;;5029372;28;19925;-86
2024/02/22 10:13:41;;;;;;;;;;;8.80;99.90;;;;;;5036885;28;19954;-87
2024/02/22 10:16:12;;;;;;;;;;;8.80;99.90;;;;;;5036437;28;19960;-87
2024/02/22 10:18:39;;;;;;;;;;;8.80;99.90;;;;;;5029749;28;19960;-86
2024/02/22 10:21:13;;;;;;;;;;;8.80;99.90;;;;;;5027239;28;20438;-85
2024/02/22 10:23:40;;;;;;;;;;;8.80;99.90;;;;;;5020276;28;20046;-88
2024/02/22 10:26:09;;;;;;;;;;;9.00;99.90;;;;;;5023886;28;19973;-86
2024/02/22 10:28:35;;;;;;;;;;;8.90;99.90;;;;;;5025341;28;20453;-87
2024/02/22 10:31:03;;;;;;;;;;;8.90;99.90;;;;;;5025633;28;19979;-86
2024/02/22 10:33:30;;;;;;;;;;;8.90;99.90;;;;;;5026944;28;19940;-85
2024/02/22 10:35:57;;;;;;;;;;;8.90;99.90;;;;;;5027970;28;20014;-85
2024/02/22 10:38:23;;;;;;;;;;;9.00;99.90;;;;;;5021180;28;19992;-86
2024/02/22 10:40:51;;;;;;;;;;;9.00;99.90;;;;;;5023706;28;20393;-86
2024/02/22 10:43:19;;;;;;;;;;;9.10;99.90;;;;;;5023396;28;20404;-87
2024/02/22 10:45:47;;;;;;;;;;;9.10;99.90;;;;;;5025442;28;19925;-86
2024/02/22 10:48:14;;;;;;;;;;;9.10;99.90;;;;;;5025272;28;19921;-86
2024/02/22 10:50:42;;;;;;;;;;;9.20;99.90;;;;;;5026821;28;19995;-84
2024/02/22 10:53:12;;;;;;;;;;;9.20;99.90;;;;;;5032909;28;19921;-85
2024/02/22 10:55:40;;;;;;;;;;;9.30;99.90;;;;;;5029212;28;19959;-87
2024/02/22 10:58:08;;;;;;;;;;;9.40;99.90;;;;;;5026437;28;20019;-86
2024/02/22 11:00:37;;;;;;;;;;;9.60;99.90;;;;;;5025882;28;19959;-87
2024/02/22 11:03:04;;;;;;;;;;;9.60;99.90;;;;;;5025040;28;19971;-86
2024/02/22 11:05:35;;;;;;;;;;;9.80;99.90;;;;;;5036003;28;19929;-86
2024/02/22 11:08:02;;;;;;;;;;;9.80;99.90;;;;;;5024815;28;19963;-87
2024/02/22 11:10:28;;;;;;;;;;;10.00;99.90;;;;;;5024357;28;19922;-87
2024/02/22 11:13:02;;;;;;;;;;;10.00;99.90;;;;;;5024483;28;19944;-86
2024/02/22 11:15:31;;;;;;;;;;;9.90;99.90;;;;;;5037521;28;19941;-84
2024/02/22 11:17:59;;;;;;;;;;;9.80;99.90;;;;;;5038352;28;19905;-86
2024/02/22 11:20:33;;;;;;;;;;;9.90;99.90;;;;;;5025320;28;19971;-87
2024/02/22 11:23:11;;;;;;;;;;;9.90;99.90;;;;;;5023692;28;19961;-87
2024/02/22 11:25:38;;;;;;;;;;;9.90;99.90;;;;;;5025608;28;19921;-87
2024/02/22 11:28:05;;;;;;;;;;;9.80;99.90;;;;;;5023601;28;19925;-87
2024/02/22 11:30:31;;;;;;;;;;;9.80;99.90;;;;;;5022759;28;19995;-87
2024/02/22 11:32:59;;;;;;;;;;;9.80;99.90;;;;;;5024724;28;20024;-87
2024/02/22 11:35:29;;;;;;;;;;;10.00;99.90;;;;;;5022786;28;19955;-86
2024/02/22 11:37:59;;;;;;;;;;;10.10;99.90;;;;;;5031609;28;20000;-85
2024/02/22 11:40:30;;;;;;;;;;;10.30;99.90;;;;;;5022675;28;19921;-85
2024/02/22 11:42:57;;;;;;;;;;;10.40;99.90;;;;;;5024649;28;20478;-86
2024/02/22 11:45:24;;;;;;;;;;;10.40;99.90;;;;;;5024064;28;19967;-85
2024/02/22 11:47:50;;;;;;;;;;;10.30;99.90;;;;;;5017501;28;19983;-85
2024/02/22 11:50:19;;;;;;;;;;;10.30;99.90;;;;;;5016987;28;20008;-86
2024/02/22 11:52:46;;;;;;;;;;;10.30;99.90;;;;;;5016523;28;19943;-85
2024/02/22 11:55:13;;;;;;;;;;;10.30;99.90;;;;;;5019475;28;19957;-85
2024/02/22 11:57:41;;;;;;;;;;;10.30;99.90;;;;;;5021790;28;19965;-85
2024/02/22 12:00:09;;;;;;;;;;;10.30;98.40;;;;;;5027605;28;19988;-86
2024/02/22 12:02:36;;;;;;;;;;;10.40;99.90;;;;;;5029296;28;19921;-86
2024/02/22 12:05:04;;;;;;;;;;;10.40;93.80;;;;;;5030027;28;19950;-84
2024/02/22 12:07:32;;;;;;;;;;;10.40;95.60;;;;;;5031733;28;19975;-87
2024/02/22 12:09:59;;;;;;;;;;;10.40;94.20;;;;;;5024472;28;19995;-86
2024/02/22 12:12:26;;;;;;;;;;;10.30;92.70;;;;;;5025107;28;19922;-86
2024/02/22 12:14:56;;;;;;;;;;;10.30;95.80;;;;;;5026808;28;19944;-87
2024/02/22 12:17:25;;;;;;;;;;;10.30;98.80;;;;;;5029849;28;20398;-86
2024/02/22 12:19:51;;;;;;;;;;;10.20;99.90;;;;;;5027956;28;19928;-88
2024/02/22 12:22:18;;;;;;;;;;;10.20;99.90;;;;;;5027793;28;19917;-86
2024/02/22 12:24:48;;;;;;;;;;;10.20;99.90;;;;;;5026863;28;19970;-86
2024/02/22 12:27:15;;;;;;;;;;;10.20;99.90;;;;;;5028070;28;19960;-86
2024/02/22 12:29:41;;;;;;;;;;;10.10;99.90;;;;;;5028440;28;19960;-88
2024/02/22 12:32:08;;;;;;;;;;;10.10;99.90;;;;;;5031153;28;19941;-86
2024/02/22 12:34:35;;;;;;;;;;;10.10;99.90;;;;;;5042382;28;19940;-83
2024/02/22 12:37:02;;;;;;;;;;;10.10;99.90;;;;;;5036387;28;19958;-86
2024/02/22 12:39:28;;;;;;;;;;;10.10;99.90;;;;;;5027374;28;19922;-86
2024/02/22 12:41:57;;;;;;;;;;;10.20;99.90;;;;;;5027771;28;19968;-88
2024/02/22 12:44:24;;;;;;;;;;;10.20;99.90;;;;;;5040358;28;19954;-84
2024/02/22 12:46:50;;;;;;;;;;;10.10;99.90;;;;;;5042155;28;19905;-85
2024/02/22 12:49:17;;;;;;;;;;;10.20;99.90;;;;;;5041689;28;19981;-86
2024/02/22 12:51:47;;;;;;;;;;;10.30;99.90;;;;;;5029757;28;19975;-86
2024/02/22 12:54:14;;;;;;;;;;;10.30;99.90;;;;;;5024163;28;19990;-85
2024/02/22 12:56:41;;;;;;;;;;;10.30;99.90;;;;;;5025544;28;19944;-86
2024/02/22 12:59:09;;;;;;;;;;;10.40;99.90;;;;;;5025669;28;19972;-86
2024/02/22 13:01:37;;;;;;;;;;;10.50;99.90;;;;;;5027104;28;20006;-87
2024/02/22 13:04:04;;;;;;;;;;;10.60;99.90;;;;;;5029951;28;19984;-86
2024/02/22 13:06:33;;;;;;;;;;;10.60;99.90;;;;;;5027185;28;19982;-86
2024/02/22 13:09:00;;;;;;;;;;;10.70;99.90;;;;;;5030512;28;19956;-86
2024/02/22 13:11:27;;;;;;;;;;;10.80;99.90;;;;;;5023667;28;20404;-85
2024/02/22 13:13:54;;;;;;;;;;;10.90;99.90;;;;;;5023750;28;20020;-86
2024/02/22 13:16:24;;;;;;;;;;;10.90;99.90;;;;;;5025517;28;20011;-86
2024/02/22 13:18:51;;;;;;;;;;;11.10;99.70;;;;;;5027530;28;19925;-86
2024/02/22 13:21:18;;;;;;;;;;;11.20;91.80;;;;;;5029257;28;20035;-85
2024/02/22 13:23:45;;;;;;;;;;;11.10;11.20;;;;;;5040266;28;19953;-86
2024/02/22 13:26:11;;;;;;;;;;;11.20;12.70;;;;;;5040106;28;19928;-85
2024/02/22 13:28:38;;;;;;;;;;;11.10;1.00;;;;;;5040487;28;19940;-84
2024/02/22 13:31:05;;;;;;;;;;;11.10;1.00;;;;;;5039018;28;19950;-84
2024/02/22 13:33:33;;;;;;;;;;;11.00;1.00;;;;;;5037055;28;19940;-85
2024/02/22 13:36:00;;;;;;;;;;;11.10;1.00;;;;;;5036822;28;19951;-86
2024/02/22 13:38:26;;;;;;;;;;;11.20;1.00;;;;;;5038202;28;19963;-84
2024/02/22 13:40:54;;;;;;;;;;;11.20;1.00;;;;;;5034541;28;19928;-87
2024/02/22 13:43:22;;;;;;;;;;;11.20;1.00;;;;;;5029465;28;19973;-87
2024/02/22 13:45:49;;;;;;;;;;;11.30;1.00;;;;;;5025899;28;19927;-87
2024/02/22 13:48:17;;;;;;;;;;;11.20;1.00;;;;;;5026907;28;20313;-86
2024/02/22 13:50:46;;;;;;;;;;;11.20;1.00;;;;;;5026929;28;20013;-87
2024/02/22 13:53:12;;;;;;;;;;;11.20;1.00;;;;;;5025883;28;19982;-86
2024/02/22 13:55:39;;;;;;;;;;;11.10;1.00;;;;;;5030803;28;19921;-86
2024/02/22 13:58:06;;;;;;;;;;;11.20;1.00;;;;;;5033225;28;19966;-87
2024/02/22 14:00:35;;;;;;;;;;;11.20;1.00;;;;;;5029033;28;19936;-87
2024/02/22 14:03:02;;;;;;;;;;;11.30;1.00;;;;;;5026099;28;20408;-86
2024/02/22 14:05:30;;;;;;;;;;;11.30;1.00;;;;;;5024952;28;20046;-87
2024/02/22 14:07:58;;;;;;;;;;;11.30;1.00;;;;;;5025401;28;19967;-85
2024/02/22 14:10:27;;;;;;;;;;;11.30;1.00;;;;;;5026078;28;19939;-87
2024/02/22 14:12:55;;;;;;;;;;;11.30;1.00;;;;;;5036016;28;19941;-86
2024/02/22 14:15:21;;;;;;;;;;;11.20;1.00;;;;;;5028989;28;20032;-86
2024/02/22 14:17:48;;;;;;;;;;;11.20;1.00;;;;;;5025401;28;19978;-86
2024/02/22 14:20:15;;;;;;;;;;;11.20;1.00;;;;;;5027910;28;19959;-85
2024/02/22 14:22:42;;;;;;;;;;;11.30;1.00;;;;;;5033954;28;19953;-85
2024/02/22 14:25:10;;;;;;;;;;;11.30;1.00;;;;;;5032011;28;20286;-86
2024/02/22 14:27:37;;;;;;;;;;;11.40;1.00;;;;;;5030438;28;19941;-86
2024/02/22 14:30:05;;;;;;;;;;;11.50;1.00;;;;;;5025598;28;19975;-86
2024/02/22 14:32:32;;;;;;;;;;;11.50;1.00;;;;;;5025302;28;20389;-87
2024/02/22 14:34:59;;;;;;;;;;;11.60;1.00;;;;;;5026251;28;19942;-85
2024/02/22 14:37:30;;;;;;;;;;;11.60;99.90;;;;;;5032496;28;19921;-86
2024/02/22 14:39:57;;;;;;;;;;;11.70;99.90;;;;;;5026045;28;20027;-86